Greenville, IN (47124)

7:05 PM EDT on May 27, 2015 (GMT -0400)
Doug and Ginger | | Change Station
CLOSE
Current Station
Personal Weather Station
Location: Floyds Knobs, IN
Elevation: 735 ft
Nearby Weather Stations

Elev 735 ft 38.36 °N, 85.92 °W | Updated 14 minutes ago

Mostly Cloudy
Mostly Cloudy
73.8 °F
Feels Like 73 °F
N
2.2
Wind Variable Wind from SSW

Today
High -- | Low -- °F
--% Chance of Precip.
Yesterday
High -- | Low -- °F
Precip. -- in
6:24 AM 8:58 PM
Waxing Gibbous, 71% visible
Pressure 30.10 in
Visibility 10.0 miles
Clouds Few 11000 ft
Scattered Clouds 16000 ft
Mostly Cloudy 19000 ft
Mostly Cloudy 22000 ft
Heat Index 73 °F
Dew Point 69 °F
Humidity 84%
Rainfall 0.00 in
Snow Depth Not available.
UV 1 out of 12
Pollen 8.40 out of 12
Air Quality Not available.
Flu Activity Sporadic
METAR KSDF 272256Z 18008KT 10SM FEW110 SCT160 BKN190 BKN220 22/17 A3011 RMK AO2 SLP193 T02220172

More Conditions Fewer Conditions

Pressure 30.10 in
Visibility 10.0 miles
Clouds Few 11000 ft
Scattered Clouds 16000 ft
Mostly Cloudy 19000 ft
Mostly Cloudy 22000 ft
Heat Index 73 °F
Dew Point 69 °F
Humidity 84%
Rainfall 0.00 in
Snow Depth Not available.
UV 1 out of 12
Pollen 8.40 out of 12
Air Quality Not available.
Flu Activity Sporadic
METAR KSDF 272256Z 18008KT 10SM FEW110 SCT160 BKN190 BKN220 22/17 A3011 RMK AO2 SLP193 T02220172

More Conditions Fewer Conditions

10-Day Weather Forecast

Almanac

Astronomy

May. 27, 2015 Rise Set
Actual Time
Civil Twilight
Nautical Twilight
Astronomical Twilight
Moon
Length of Visible Light
Length of Day
Tomorrow will be .
, % of the Moon is Illuminated

Today's Extremes

State Highs State Lows

Community

WunderPhotos

Upload Photos

1,824,815 photos uploaded!

WunderBlogs® & News

Nearby

Air Quality

  Air Quality AQ Index Pollutant
Not available.

Snow Depth

Station Depth Elevation

Earthquake Activity

City Distance Mag. Time & Date
Minimum magnitude displayed is 2.5.

Coastal Water Temperatures

Place Temperature

Stations

Nearby Weather Stations

Station Location Temp. Windchill Dew Point Humidity Wind Precip. Elev Updated Type